createdAt,value
2018-07-27T00:01:16.427Z,26.00
2018-07-27T00:06:19.609Z,25.90
2018-07-27T00:11:22.811Z,25.80
2018-07-27T00:16:25.993Z,25.70
2018-07-27T00:21:29.158Z,25.60
2018-07-27T00:26:32.366Z,25.50
2018-07-27T00:31:35.598Z,25.50
2018-07-27T00:36:38.763Z,25.30
2018-07-27T00:41:41.938Z,25.10
2018-07-27T00:46:45.274Z,25.10
2018-07-27T00:51:48.443Z,24.90
2018-07-27T00:56:51.626Z,24.90
2018-07-27T01:01:54.819Z,24.60
2018-07-27T01:06:58.050Z,24.40
2018-07-27T01:12:01.231Z,24.30
2018-07-27T01:17:04.394Z,24.40
2018-07-27T01:22:07.606Z,24.50
2018-07-27T01:27:10.791Z,24.50
2018-07-27T01:32:13.994Z,24.60
2018-07-27T01:37:17.170Z,24.50
2018-07-27T01:42:20.339Z,24.30
2018-07-27T01:47:23.607Z,24.30
2018-07-27T01:52:26.830Z,24.40
2018-07-27T01:57:29.967Z,24.30
2018-07-27T02:02:33.126Z,24.30
2018-07-27T02:07:36.299Z,24.10
2018-07-27T02:17:42.455Z,23.80
2018-07-27T02:22:45.643Z,23.80
2018-07-27T02:27:48.835Z,23.50
2018-07-27T02:32:52.016Z,23.60
2018-07-27T02:37:55.209Z,23.30
2018-07-27T02:42:58.422Z,23.10
2018-07-27T02:48:01.621Z,23.30
2018-07-27T02:53:04.907Z,23.10
2018-07-27T02:58:08.118Z,23.00
2018-07-27T03:03:11.327Z,22.90
2018-07-27T03:08:14.512Z,22.80
2018-07-27T03:13:17.679Z,22.80
2018-07-27T03:18:20.959Z,22.90
2018-07-27T03:23:24.130Z,22.70
2018-07-27T03:33:30.309Z,22.90
2018-07-27T03:38:33.489Z,23.00
2018-07-27T03:43:36.700Z,23.20
2018-07-27T03:48:39.828Z,23.20
2018-07-27T03:53:43.015Z,23.20
2018-07-27T03:58:46.207Z,22.80
2018-07-27T04:03:49.411Z,22.80
2018-07-27T04:08:52.785Z,23.00
2018-07-27T04:13:55.970Z,23.00
2018-07-27T04:18:59.145Z,23.00
2018-07-27T04:24:02.338Z,23.00
2018-07-27T04:37:48.252Z,25.30
2018-07-27T04:42:51.480Z,26.50
2018-07-27T04:47:54.644Z,27.60
2018-07-27T04:52:57.827Z,28.50
2018-07-27T04:58:01.024Z,29.60
2018-07-27T05:03:04.200Z,29.90
2018-07-27T05:08:07.380Z,29.90
2018-07-27T05:13:10.649Z,29.40
2018-07-27T05:18:14.062Z,28.80
2018-07-27T05:23:17.182Z,29.60
2018-07-27T05:28:20.407Z,30.70
2018-07-27T05:33:23.588Z,30.20
2018-07-27T05:38:26.874Z,29.90
2018-07-27T05:43:30.056Z,29.80
2018-07-27T05:48:33.235Z,30.30
2018-07-27T05:53:36.451Z,30.40
2018-07-27T05:58:39.631Z,31.30
2018-07-27T06:03:42.819Z,31.60
2018-07-27T06:08:45.996Z,30.80
2018-07-27T06:13:49.291Z,31.30
2018-07-27T06:18:52.465Z,32.00
2018-07-27T06:23:55.745Z,31.50
2018-07-27T06:28:58.808Z,31.50
2018-07-27T06:34:01.992Z,31.20
2018-07-27T06:39:07.626Z,31.40
2018-07-27T06:44:10.827Z,32.50
2018-07-27T06:49:14.068Z,33.20
2018-07-27T06:54:17.282Z,33.30
2018-07-27T06:59:20.466Z,33.10
2018-07-27T07:04:23.710Z,33.70
2018-07-27T07:09:26.911Z,34.40
2018-07-27T07:14:30.204Z,34.20
2018-07-27T07:19:33.388Z,33.40
2018-07-27T07:24:36.603Z,34.00
2018-07-27T07:29:39.886Z,34.30
2018-07-27T07:34:43.099Z,35.00
2018-07-27T07:39:46.336Z,35.30
2018-07-27T07:44:49.540Z,35.90
2018-07-27T07:49:52.726Z,36.20
2018-07-27T07:54:56.340Z,35.70
2018-07-27T07:59:59.536Z,36.00
2018-07-27T08:05:02.723Z,36.70
2018-07-27T08:10:05.956Z,36.80
2018-07-27T08:15:09.535Z,37.10
2018-07-27T08:20:12.735Z,36.80
2018-07-27T08:25:15.956Z,37.00
2018-07-27T08:30:19.143Z,36.80
2018-07-27T08:35:22.791Z,36.40
2018-07-27T08:40:25.988Z,36.50
2018-07-27T08:45:29.193Z,36.70
2018-07-27T08:50:32.421Z,36.30
2018-07-27T08:55:35.632Z,36.10
2018-07-27T09:00:50.187Z,36.90
2018-07-27T09:05:53.385Z,36.50
2018-07-27T09:10:57.601Z,36.60
2018-07-27T09:16:00.795Z,37.00
2018-07-27T09:21:03.996Z,38.00
2018-07-27T09:26:07.192Z,38.40
2018-07-27T09:31:10.447Z,37.10
2018-07-27T09:36:13.615Z,36.80
2018-07-27T09:41:16.799Z,36.80
2018-07-27T09:46:20.029Z,37.20
2018-07-27T09:51:24.373Z,36.60
2018-07-27T09:56:27.539Z,36.10
2018-07-27T10:01:30.728Z,36.50
2018-07-27T10:06:33.934Z,36.40
2018-07-27T10:11:37.130Z,37.10
2018-07-27T10:21:43.307Z,36.50
2018-07-27T10:26:46.512Z,36.70
2018-07-27T10:31:49.717Z,36.60
2018-07-27T10:36:52.911Z,37.40
2018-07-27T10:41:56.134Z,37.80
2018-07-27T10:46:59.356Z,36.90
2018-07-27T10:52:02.587Z,35.60
2018-07-27T10:57:05.771Z,36.20
2018-07-27T11:02:08.999Z,36.60
2018-07-27T11:07:12.310Z,37.50
2018-07-27T11:12:15.496Z,37.10
2018-07-27T11:17:18.756Z,37.00
2018-07-27T11:22:21.903Z,37.30
2018-07-27T11:27:25.196Z,37.50
2018-07-27T11:32:28.397Z,37.10
2018-07-27T11:42:34.582Z,36.80
2018-07-27T11:47:38.042Z,36.00
2018-07-27T11:52:41.244Z,35.70
2018-07-27T11:57:44.456Z,35.30
2018-07-27T12:02:47.698Z,34.10
2018-07-27T12:07:51.363Z,34.10
2018-07-27T12:12:54.567Z,33.90
2018-07-27T12:17:57.774Z,34.20
2018-07-27T12:23:00.962Z,34.10
2018-07-27T12:28:04.134Z,34.00
2018-07-27T12:33:07.556Z,33.90
2018-07-27T12:48:18.352Z,34.50
2018-07-27T12:53:21.585Z,34.00
2018-07-27T12:58:24.835Z,34.00
2018-07-27T13:03:28.058Z,34.00
2018-07-27T13:08:31.263Z,34.30
2018-07-27T13:13:34.449Z,34.30
2018-07-27T13:23:50.964Z,33.90
2018-07-27T13:28:55.114Z,34.00
2018-07-27T13:34:17.044Z,34.50
2018-07-27T13:39:20.213Z,34.50
2018-07-27T13:44:23.436Z,34.30
2018-07-27T13:49:27.715Z,34.30
2018-07-27T13:54:32.406Z,34.20
2018-07-27T13:59:35.538Z,33.90
2018-07-27T14:04:38.851Z,34.20
2018-07-27T14:09:42.111Z,34.30
2018-07-27T14:14:45.279Z,34.50
2018-07-27T14:19:48.515Z,34.60
2018-07-27T14:24:51.683Z,34.80
2018-07-27T14:29:55.056Z,34.50
2018-07-27T14:34:58.305Z,33.90
2018-07-27T14:40:01.911Z,34.00
2018-07-27T14:45:05.234Z,34.30
2018-07-27T14:50:08.555Z,34.30
2018-07-27T14:55:11.764Z,34.30
2018-07-27T15:00:14.999Z,34.20
2018-07-27T15:05:18.295Z,34.40
2018-07-27T15:10:22.314Z,34.50
2018-07-27T15:15:25.513Z,34.20
2018-07-27T15:20:28.686Z,34.30
2018-07-27T15:25:32.467Z,34.40
2018-07-27T15:30:35.814Z,34.40
2018-07-27T15:35:39.257Z,34.30
2018-07-27T15:40:42.555Z,34.20
2018-07-27T15:45:45.903Z,34.40
2018-07-27T15:50:49.207Z,34.20
2018-07-27T15:55:53.099Z,34.30
2018-07-27T16:00:56.279Z,34.30
2018-07-27T16:11:02.886Z,33.90
2018-07-27T16:16:06.290Z,33.90
2018-07-27T16:21:09.709Z,33.90
2018-07-27T16:26:13.026Z,33.90
2018-07-27T16:31:16.915Z,33.80
2018-07-27T16:41:23.380Z,33.80
2018-07-27T16:46:26.864Z,33.70
2018-07-27T16:51:30.216Z,33.80
2018-07-27T16:56:33.506Z,33.70
2018-07-27T17:03:18.009Z,33.60
2018-07-27T17:08:21.244Z,33.50
2018-07-27T17:13:24.482Z,33.50
2018-07-27T17:18:27.651Z,33.30
2018-07-27T17:23:30.820Z,33.20
2018-07-27T17:28:34.504Z,33.20
2018-07-27T17:33:38.144Z,33.20
2018-07-27T17:38:41.381Z,33.10
2018-07-27T17:53:50.619Z,32.80
2018-07-27T17:58:54.324Z,32.70
2018-07-27T18:03:57.506Z,32.60
2018-07-27T18:09:00.698Z,32.50
2018-07-27T18:14:03.878Z,32.40
2018-07-27T18:19:07.414Z,32.20
2018-07-27T18:24:10.532Z,32.10
2018-07-27T18:29:13.710Z,31.90
2018-07-27T18:34:16.936Z,31.70
2018-07-27T18:39:20.139Z,31.60
2018-07-27T18:44:23.323Z,31.50
2018-07-27T18:49:26.497Z,31.40
2018-07-27T18:54:29.698Z,31.20
2018-07-27T18:59:32.870Z,31.00
2018-07-27T19:04:36.048Z,30.90
2018-07-27T19:09:39.246Z,30.70
2018-07-27T19:14:42.443Z,30.50
2018-07-27T19:19:45.632Z,30.30
2018-07-27T19:29:51.799Z,30.00
2018-07-27T19:34:55.067Z,29.70
2018-07-27T19:39:58.246Z,29.50
2018-07-27T19:45:01.466Z,29.40
2018-07-27T19:50:04.931Z,29.20
2018-07-27T19:55:08.155Z,29.10
2018-07-27T20:00:11.331Z,28.90
2018-07-27T20:05:14.531Z,28.70
2018-07-27T20:10:17.701Z,28.60
2018-07-27T20:15:20.912Z,28.40
2018-07-27T20:20:24.068Z,28.40
2018-07-27T20:25:27.235Z,28.20
2018-07-27T20:30:30.410Z,28.10
2018-07-27T20:35:33.590Z,28.10
2018-07-27T20:40:36.771Z,28.00
2018-07-27T20:45:39.954Z,27.90
2018-07-27T20:50:43.132Z,27.90
2018-07-27T20:55:46.318Z,27.90
2018-07-27T21:00:49.511Z,27.80
2018-07-27T21:05:52.703Z,27.80
2018-07-27T21:10:55.869Z,27.80
2018-07-27T21:15:59.035Z,27.80
2018-07-27T21:21:02.216Z,27.70
2018-07-27T21:26:05.396Z,27.80
2018-07-27T21:31:08.606Z,27.80
2018-07-27T21:36:11.739Z,27.80
2018-07-27T21:41:14.923Z,27.80
2018-07-27T21:46:18.099Z,27.80
2018-07-27T21:51:21.262Z,27.80
2018-07-27T21:56:24.419Z,27.80
2018-07-27T22:01:27.600Z,27.80
2018-07-27T22:06:30.798Z,27.70
2018-07-27T22:11:33.995Z,27.60
2018-07-27T22:16:37.187Z,27.40
2018-07-27T22:21:40.371Z,27.30
2018-07-27T22:26:43.589Z,27.20
2018-07-27T22:31:46.768Z,27.00
2018-07-27T22:36:49.946Z,27.00
2018-07-27T22:41:53.134Z,26.90
2018-07-27T22:46:56.295Z,26.80
2018-07-27T22:51:59.467Z,26.80
2018-07-27T22:57:02.803Z,26.70
2018-07-27T23:02:05.983Z,26.60
2018-07-27T23:07:09.258Z,26.60
2018-07-27T23:12:12.488Z,26.50
2018-07-27T23:22:18.579Z,26.40
2018-07-27T23:27:21.768Z,26.30
2018-07-27T23:32:24.964Z,26.30
2018-07-27T23:37:28.142Z,26.10
2018-07-27T23:42:31.339Z,26.00
2018-07-27T23:52:37.507Z,25.90
2018-07-27T23:57:40.723Z,25.80
